sensor_id;sensor_type;location;lat;lon;timestamp;pressure;altitude;pressure_sealevel;temperature;humidity
36380;BME280;22411;53.016;18.632;2023-09-08T00:01:49;101604.25;;;18.15;100.00
36380;BME280;22411;53.016;18.632;2023-09-08T00:04:15;101606.41;;;18.10;100.00
36380;BME280;22411;53.016;18.632;2023-09-08T00:06:41;101600.72;;;18.05;100.00
36380;BME280;22411;53.016;18.632;2023-09-08T00:09:07;101604.16;;;18.05;100.00
36380;BME280;22411;53.016;18.632;2023-09-08T00:11:33;101597.63;;;17.99;100.00
36380;BME280;22411;53.016;18.632;2023-09-08T00:13:59;101598.16;;;17.93;100.00
36380;BME280;22411;53.016;18.632;2023-09-08T00:16:25;101596.72;;;17.89;100.00
36380;BME280;22411;53.016;18.632;2023-09-08T00:18:50;101595.06;;;17.88;100.00
36380;BME280;22411;53.016;18.632;2023-09-08T00:21:16;101591.16;;;17.83;100.00
36380;BME280;22411;53.016;18.632;2023-09-08T00:23:42;101589.88;;;17.77;100.00
36380;BME280;22411;53.016;18.632;2023-09-08T00:26:07;101593.56;;;17.74;100.00
36380;BME280;22411;53.016;18.632;2023-09-08T00:28:33;101595.22;;;17.75;100.00
36380;BME280;22411;53.016;18.632;2023-09-08T00:30:59;101598.69;;;17.76;100.00
36380;BME280;22411;53.016;18.632;2023-09-08T00:33:27;101596.19;;;17.74;100.00
36380;BME280;22411;53.016;18.632;2023-09-08T00:35:53;101594.72;;;17.70;100.00
36380;BME280;22411;53.016;18.632;2023-09-08T00:38:19;101594.28;;;17.65;100.00
36380;BME280;22411;53.016;18.632;2023-09-08T00:40:45;101591.78;;;17.64;100.00
36380;BME280;22411;53.016;18.632;2023-09-08T00:43:11;101587.75;;;17.60;100.00
36380;BME280;22411;53.016;18.632;2023-09-08T00:45:40;101590.63;;;17.57;100.00
36380;BME280;22411;53.016;18.632;2023-09-08T00:48:07;101596.81;;;17.56;100.00
36380;BME280;22411;53.016;18.632;2023-09-08T00:50:34;101591.31;;;17.59;100.00
36380;BME280;22411;53.016;18.632;2023-09-08T00:53:00;101588.84;;;17.57;100.00
36380;BME280;22411;53.016;18.632;2023-09-08T00:55:26;101602.19;;;17.54;100.00
36380;BME280;22411;53.016;18.632;2023-09-08T00:57:52;101595.41;;;17.51;100.00
36380;BME280;22411;53.016;18.632;2023-09-08T01:00:17;101595.78;;;17.47;100.00
36380;BME280;22411;53.016;18.632;2023-09-08T01:02:43;101591.72;;;17.43;100.00
36380;BME280;22411;53.016;18.632;2023-09-08T01:05:10;101592.69;;;17.42;100.00
36380;BME280;22411;53.016;18.632;2023-09-08T01:07:36;101590.19;;;17.40;100.00
36380;BME280;22411;53.016;18.632;2023-09-08T01:10:02;101592.91;;;17.39;100.00
36380;BME280;22411;53.016;18.632;2023-09-08T01:12:32;101588.63;;;17.38;100.00
36380;BME280;22411;53.016;18.632;2023-09-08T01:14:58;101591.53;;;17.35;100.00
36380;BME280;22411;53.016;18.632;2023-09-08T01:17:25;101589.13;;;17.32;100.00
36380;BME280;22411;53.016;18.632;2023-09-08T01:19:55;101586.03;;;17.27;100.00
36380;BME280;22411;53.016;18.632;2023-09-08T01:27:45;101591.31;;;17.15;100.00
36380;BME280;22411;53.016;18.632;2023-09-08T01:30:12;101589.38;;;17.17;100.00
36380;BME280;22411;53.016;18.632;2023-09-08T01:32:39;101592.28;;;17.14;100.00
36380;BME280;22411;53.016;18.632;2023-09-08T01:35:06;101587.13;;;17.13;100.00
36380;BME280;22411;53.016;18.632;2023-09-08T01:37:32;101591.66;;;17.11;100.00
36380;BME280;22411;53.016;18.632;2023-09-08T01:39:58;101587.97;;;17.13;100.00
36380;BME280;22411;53.016;18.632;2023-09-08T01:42:24;101578.44;;;17.12;100.00
36380;BME280;22411;53.016;18.632;2023-09-08T01:44:49;101581.06;;;17.12;100.00
36380;BME280;22411;53.016;18.632;2023-09-08T01:47:16;101581.41;;;17.08;100.00
36380;BME280;22411;53.016;18.632;2023-09-08T01:49:41;101581.41;;;17.08;100.00
36380;BME280;22411;53.016;18.632;2023-09-08T01:52:07;101584.03;;;17.08;100.00
36380;BME280;22411;53.016;18.632;2023-09-08T01:54:32;101577.13;;;17.07;100.00
36380;BME280;22411;53.016;18.632;2023-09-08T01:56:58;101573.09;;;17.03;100.00
36380;BME280;22411;53.016;18.632;2023-09-08T01:59:24;101570.59;;;17.01;100.00
36380;BME280;22411;53.016;18.632;2023-09-08T02:01:50;101569.91;;;16.99;100.00
36380;BME280;22411;53.016;18.632;2023-09-08T02:04:15;101566.31;;;17.00;100.00
36380;BME280;22411;53.016;18.632;2023-09-08T02:06:41;101560.50;;;16.96;100.00
36380;BME280;22411;53.016;18.632;2023-09-08T02:09:07;101555.38;;;16.95;100.00
36380;BME280;22411;53.016;18.632;2023-09-08T02:11:35;101559.53;;;16.97;100.00
36380;BME280;22411;53.016;18.632;2023-09-08T02:14:00;101561.09;;;17.00;100.00
36380;BME280;22411;53.016;18.632;2023-09-08T02:16:26;101562.28;;;16.96;100.00
36380;BME280;22411;53.016;18.632;2023-09-08T02:18:52;101553.94;;;16.91;100.00
36380;BME280;22411;53.016;18.632;2023-09-08T02:21:18;101560.50;;;16.85;100.00
36380;BME280;22411;53.016;18.632;2023-09-08T02:23:43;101551.69;;;16.75;100.00
36380;BME280;22411;53.016;18.632;2023-09-08T02:26:09;101557.06;;;16.73;100.00
36380;BME280;22411;53.016;18.632;2023-09-08T02:28:36;101551.13;;;16.71;100.00
36380;BME280;22411;53.016;18.632;2023-09-08T02:31:01;101562.84;;;16.66;100.00
36380;BME280;22411;53.016;18.632;2023-09-08T02:33:27;101543.00;;;16.63;100.00
36380;BME280;22411;53.016;18.632;2023-09-08T02:35:54;101552.84;;;16.60;100.00
36380;BME280;22411;53.016;18.632;2023-09-08T02:38:19;101544.28;;;16.58;100.00
36380;BME280;22411;53.016;18.632;2023-09-08T02:40:45;101548.69;;;16.57;100.00
36380;BME280;22411;53.016;18.632;2023-09-08T02:43:11;101547.63;;;16.60;100.00
36380;BME280;22411;53.016;18.632;2023-09-08T02:45:36;101546.78;;;16.59;100.00
36380;BME280;22411;53.016;18.632;2023-09-08T02:48:02;101546.78;;;16.59;100.00
36380;BME280;22411;53.016;18.632;2023-09-08T02:50:28;101542.50;;;16.58;100.00
36380;BME280;22411;53.016;18.632;2023-09-08T02:52:53;101548.34;;;16.62;100.00
36380;BME280;22411;53.016;18.632;2023-09-08T02:55:19;101545.81;;;16.60;100.00
36380;BME280;22411;53.016;18.632;2023-09-08T02:57:45;101552.03;;;16.59;100.00
36380;BME280;22411;53.016;18.632;2023-09-08T03:00:11;101542.63;;;16.57;100.00
36380;BME280;22411;53.016;18.632;2023-09-08T03:02:36;101552.03;;;16.59;100.00
36380;BME280;22411;53.016;18.632;2023-09-08T03:05:02;101541.41;;;16.61;100.00
36380;BME280;22411;53.016;18.632;2023-09-08T03:07:28;101547.53;;;16.61;100.00
36380;BME280;22411;53.016;18.632;2023-09-08T03:09:54;101543.13;;;16.62;100.00
36380;BME280;22411;53.016;18.632;2023-09-08T03:12:19;101542.16;;;16.63;100.00
36380;BME280;22411;53.016;18.632;2023-09-08T03:14:45;101538.81;;;16.61;100.00
36380;BME280;22411;53.016;18.632;2023-09-08T03:17:11;101538.09;;;16.59;100.00
36380;BME280;22411;53.016;18.632;2023-09-08T03:19:38;101544.28;;;16.58;100.00
36380;BME280;22411;53.016;18.632;2023-09-08T03:22:04;101544.66;;;16.53;100.00
36380;BME280;22411;53.016;18.632;2023-09-08T03:24:30;101540.59;;;16.49;100.00
36380;BME280;22411;53.016;18.632;2023-09-08T03:26:55;101543.13;;;16.51;100.00
36380;BME280;22411;53.016;18.632;2023-09-08T03:29:23;101542.50;;;16.47;100.00
36380;BME280;22411;53.016;18.632;2023-09-08T03:31:49;101544.38;;;16.45;100.00
36380;BME280;22411;53.016;18.632;2023-09-08T03:34:15;101546.31;;;16.43;100.00
36380;BME280;22411;53.016;18.632;2023-09-08T03:36:40;101542.16;;;16.40;100.00
36380;BME280;22411;53.016;18.632;2023-09-08T03:39:06;101546.66;;;16.38;100.00
36380;BME280;22411;53.016;18.632;2023-09-08T03:41:34;101541.41;;;16.38;100.00
36380;BME280;22411;53.016;18.632;2023-09-08T03:44:05;101548.31;;;16.39;100.00
36380;BME280;22411;53.016;18.632;2023-09-08T03:46:31;101543.06;;;16.39;100.00
36380;BME280;22411;53.016;18.632;2023-09-08T03:48:57;101539.63;;;16.39;100.00
36380;BME280;22411;53.016;18.632;2023-09-08T03:51:27;101548.31;;;16.39;100.00
36380;BME280;22411;53.016;18.632;2023-09-08T03:53:53;101544.03;;;16.38;100.00
36380;BME280;22411;53.016;18.632;2023-09-08T03:56:19;101541.53;;;16.37;100.00
36380;BME280;22411;53.016;18.632;2023-09-08T03:58:46;101539.88;;;16.36;100.00
36380;BME280;22411;53.016;18.632;2023-09-08T04:01:12;101545.94;;;16.36;100.00
36380;BME280;22411;53.016;18.632;2023-09-08T04:03:37;101549.38;;;16.37;100.00
36380;BME280;22411;53.016;18.632;2023-09-08T04:06:03;101552.72;;;16.39;100.00
36380;BME280;22411;53.016;18.632;2023-09-08T04:08:29;101554.50;;;16.38;100.00
36380;BME280;22411;53.016;18.632;2023-09-08T04:10:54;101552.84;;;16.37;100.00
36380;BME280;22411;53.016;18.632;2023-09-08T04:13:20;101546.28;;;16.32;100.00
36380;BME280;22411;53.016;18.632;2023-09-08T04:15:46;101546.03;;;16.24;100.00
36380;BME280;22411;53.016;18.632;2023-09-08T04:18:12;101544.38;;;16.23;100.00
36380;BME280;22411;53.016;18.632;2023-09-08T04:20:37;101546.88;;;16.24;100.00
36380;BME280;22411;53.016;18.632;2023-09-08T04:23:03;101544.03;;;16.27;100.00
36380;BME280;22411;53.016;18.632;2023-09-08T04:25:29;101538.19;;;16.24;100.00
36380;BME280;22411;53.016;18.632;2023-09-08T04:27:55;101545.66;;;16.17;100.00
36380;BME280;22411;53.016;18.632;2023-09-08T04:30:20;101542.44;;;16.13;100.00
36380;BME280;22411;53.016;18.632;2023-09-08T04:32:46;101545.78;;;16.15;100.00
36380;BME280;22411;53.016;18.632;2023-09-08T04:35:12;101541.50;;;16.14;100.00
36380;BME280;22411;53.016;18.632;2023-09-08T04:37:38;101543.41;;;16.12;100.00
36380;BME280;22411;53.016;18.632;2023-09-08T04:40:05;101548.63;;;16.12;100.00
36380;BME280;22411;53.016;18.632;2023-09-08T04:42:31;101547.56;;;16.15;100.00
36380;BME280;22411;53.016;18.632;2023-09-08T04:44:56;101541.50;;;16.14;100.00
36380;BME280;22411;53.016;18.632;2023-09-08T04:47:22;101544.13;;;16.14;100.00
36380;BME280;22411;53.016;18.632;2023-09-08T04:49:48;101544.97;;;16.15;100.00
36380;BME280;22411;53.016;18.632;2023-09-08T04:52:14;101543.06;;;16.17;100.00
36380;BME280;22411;53.016;18.632;2023-09-08T04:54:40;101546.41;;;16.19;100.00
36380;BME280;22411;53.016;18.632;2023-09-08T04:57:06;101538.66;;;16.17;100.00
36380;BME280;22411;53.016;18.632;2023-09-08T04:59:31;101549.00;;;16.19;100.00
36380;BME280;22411;53.016;18.632;2023-09-08T05:01:58;101544.38;;;16.23;100.00
36380;BME280;22411;53.016;18.632;2023-09-08T05:04:24;101543.31;;;16.25;100.00
36380;BME280;22411;53.016;18.632;2023-09-08T05:06:50;101539.63;;;16.28;100.00
36380;BME280;22411;53.016;18.632;2023-09-08T05:09:15;101541.75;;;16.34;100.00
36380;BME280;22411;53.016;18.632;2023-09-08T05:11:41;101548.91;;;16.43;100.00
36380;BME280;22411;53.016;18.632;2023-09-08T05:14:07;101546.06;;;16.46;100.00
36380;BME280;22411;53.016;18.632;2023-09-08T05:16:33;101533.47;;;16.51;100.00
36380;BME280;22411;53.016;18.632;2023-09-08T05:19:11;101545.34;;;16.55;100.00
36380;BME280;22411;53.016;18.632;2023-09-08T05:21:37;101547.63;;;16.60;100.00
36380;BME280;22411;53.016;18.632;2023-09-08T05:24:03;101541.91;;;16.66;100.00
36380;BME280;22411;53.016;18.632;2023-09-08T05:26:29;101548.50;;;16.71;100.00
36380;BME280;22411;53.016;18.632;2023-09-08T05:28:54;101550.03;;;16.74;100.00
36380;BME280;22411;53.016;18.632;2023-09-08T05:31:20;101546.59;;;16.73;100.00
36380;BME280;22411;53.016;18.632;2023-09-08T05:33:46;101549.81;;;16.77;100.00
36380;BME280;22411;53.016;18.632;2023-09-08T05:36:12;101548.50;;;16.83;100.00
36380;BME280;22411;53.016;18.632;2023-09-08T05:38:38;101560.38;;;16.87;100.00
36380;BME280;22411;53.016;18.632;2023-09-08T05:41:03;101557.41;;;16.91;100.00
36380;BME280;22411;53.016;18.632;2023-09-08T05:43:29;101559.78;;;16.94;100.00
36380;BME280;22411;53.016;18.632;2023-09-08T05:45:55;101556.06;;;16.97;100.00
36380;BME280;22411;53.016;18.632;2023-09-08T05:48:20;101552.53;;;16.98;100.00
36380;BME280;22411;53.016;18.632;2023-09-08T05:50:46;101555.16;;;16.98;100.00
36380;BME280;22411;53.016;18.632;2023-09-08T05:53:12;101553.84;;;17.04;100.00
36380;BME280;22411;53.016;18.632;2023-09-08T05:55:38;101552.50;;;17.09;100.00
36380;BME280;22411;53.016;18.632;2023-09-08T05:58:03;101556.44;;;17.15;100.00
36380;BME280;22411;53.016;18.632;2023-09-08T06:00:29;101556.75;;;17.21;100.00
36380;BME280;22411;53.016;18.632;2023-09-08T06:02:55;101561.38;;;17.29;100.00
36380;BME280;22411;53.016;18.632;2023-09-08T06:05:21;101556.50;;;17.36;100.00
36380;BME280;22411;53.016;18.632;2023-09-08T06:07:46;101556.84;;;17.42;100.00
36380;BME280;22411;53.016;18.632;2023-09-08T06:10:14;101556.19;;;17.50;100.00
36380;BME280;22411;53.016;18.632;2023-09-08T06:12:40;101553.34;;;17.53;100.00
36380;BME280;22411;53.016;18.632;2023-09-08T06:15:06;101550.22;;;17.59;100.00
36380;BME280;22411;53.016;18.632;2023-09-08T06:17:31;101561.44;;;17.61;100.00
36380;BME280;22411;53.016;18.632;2023-09-08T06:19:57;101548.75;;;17.66;100.00
36380;BME280;22411;53.016;18.632;2023-09-08T06:22:23;101549.59;;;17.67;100.00
36380;BME280;22411;53.016;18.632;2023-09-08T06:24:48;101552.09;;;17.68;100.00
36380;BME280;22411;53.016;18.632;2023-09-08T06:27:14;101553.28;;;17.75;100.00
36380;BME280;22411;53.016;18.632;2023-09-08T06:29:40;101551.38;;;17.77;100.00
36380;BME280;22411;53.016;18.632;2023-09-08T06:32:08;101549.75;;;17.86;100.00
36380;BME280;22411;53.016;18.632;2023-09-08T06:34:34;101551.06;;;17.92;100.00
36380;BME280;22411;53.016;18.632;2023-09-08T06:37:01;101548.63;;;18.00;100.00
36380;BME280;22411;53.016;18.632;2023-09-08T06:39:27;101547.16;;;18.07;100.00
36380;BME280;22411;53.016;18.632;2023-09-08T06:41:53;101554.25;;;18.16;100.00
36380;BME280;22411;53.016;18.632;2023-09-08T06:44:20;101546.59;;;18.24;100.00
36380;BME280;22411;53.016;18.632;2023-09-08T06:46:46;101542.63;;;18.30;100.00
36380;BME280;22411;53.016;18.632;2023-09-08T06:49:12;101545.41;;;18.38;100.00
36380;BME280;22411;53.016;18.632;2023-09-08T06:51:37;101548.31;;;18.45;100.00
36380;BME280;22411;53.016;18.632;2023-09-08T06:54:04;101550.03;;;18.55;100.00
36380;BME280;22411;53.016;18.632;2023-09-08T06:56:30;101544.16;;;18.63;100.00
36380;BME280;22411;53.016;18.632;2023-09-08T06:58:56;101539.06;;;18.71;100.00
36380;BME280;22411;53.016;18.632;2023-09-08T07:01:25;101542.03;;;18.78;100.00
36380;BME280;22411;53.016;18.632;2023-09-08T07:03:51;101542.06;;;18.88;100.00
36380;BME280;22411;53.016;18.632;2023-09-08T07:06:16;101538.63;;;18.97;100.00
36380;BME280;22411;53.016;18.632;2023-09-08T07:08:42;101538.78;;;19.05;100.00
36380;BME280;22411;53.016;18.632;2023-09-08T07:11:08;101547.38;;;19.17;100.00
36380;BME280;22411;53.016;18.632;2023-09-08T07:13:34;101543.78;;;19.27;100.00
36380;BME280;22411;53.016;18.632;2023-09-08T07:16:00;101548.91;;;19.39;100.00
36380;BME280;22411;53.016;18.632;2023-09-08T07:18:26;101545.19;;;19.51;100.00
36380;BME280;22411;53.016;18.632;2023-09-08T07:20:51;101545.94;;;19.63;100.00
36380;BME280;22411;53.016;18.632;2023-09-08T07:23:17;101540.38;;;19.75;100.00
36380;BME280;22411;53.016;18.632;2023-09-08T07:25:49;101544.25;;;19.91;100.00
36380;BME280;22411;53.016;18.632;2023-09-08T07:28:16;101541.31;;;20.03;100.00
36380;BME280;22411;53.016;18.632;2023-09-08T07:30:42;101549.19;;;20.13;100.00
36380;BME280;22411;53.016;18.632;2023-09-08T07:33:08;101540.19;;;20.25;100.00
36380;BME280;22411;53.016;18.632;2023-09-08T07:35:38;101550.38;;;20.38;100.00
36380;BME280;22411;53.016;18.632;2023-09-08T07:38:04;101544.53;;;20.54;100.00
36380;BME280;22411;53.016;18.632;2023-09-08T07:40:32;101546.81;;;20.67;100.00
36380;BME280;22411;53.016;18.632;2023-09-08T07:42:58;101549.97;;;20.80;100.00
36380;BME280;22411;53.016;18.632;2023-09-08T07:45:23;101544.06;;;20.96;100.00
36380;BME280;22411;53.016;18.632;2023-09-08T07:47:49;101550.19;;;21.14;100.00
36380;BME280;22411;53.016;18.632;2023-09-08T07:50:26;101548.03;;;21.27;100.00
36380;BME280;22411;53.016;18.632;2023-09-08T07:52:54;101549.34;;;21.41;100.00
36380;BME280;22411;53.016;18.632;2023-09-08T07:55:20;101548.69;;;21.57;100.00
36380;BME280;22411;53.016;18.632;2023-09-08T07:57:50;101549.09;;;21.70;100.00
36380;BME280;22411;53.016;18.632;2023-09-08T08:00:16;101547.06;;;21.82;100.00
36380;BME280;22411;53.016;18.632;2023-09-08T08:02:46;101550.13;;;21.95;100.00
36380;BME280;22411;53.016;18.632;2023-09-08T08:05:12;101551.75;;;22.14;100.00
36380;BME280;22411;53.016;18.632;2023-09-08T08:07:39;101550.44;;;22.36;100.00
36380;BME280;22411;53.016;18.632;2023-09-08T08:10:09;101544.78;;;22.57;100.00
36380;BME280;22411;53.016;18.632;2023-09-08T08:12:38;101546.47;;;22.74;100.00
36380;BME280;22411;53.016;18.632;2023-09-08T08:15:05;101546.56;;;22.90;100.00
36380;BME280;22411;53.016;18.632;2023-09-08T08:17:31;101543.16;;;23.06;100.00
36380;BME280;22411;53.016;18.632;2023-09-08T08:19:57;101544.66;;;23.17;100.00
36380;BME280;22411;53.016;18.632;2023-09-08T08:22:33;101547.34;;;23.41;100.00
36380;BME280;22411;53.016;18.632;2023-09-08T08:24:59;101546.84;;;23.54;100.00
36380;BME280;22411;53.016;18.632;2023-09-08T08:27:25;101541.28;;;23.73;100.00
36380;BME280;22411;53.016;18.632;2023-09-08T08:29:50;101536.63;;;23.92;100.00
36380;BME280;22411;53.016;18.632;2023-09-08T08:32:17;101544.03;;;24.13;100.00
36380;BME280;22411;53.016;18.632;2023-09-08T08:34:43;101540.53;;;24.29;100.00
36380;BME280;22411;53.016;18.632;2023-09-08T08:37:10;101538.16;;;24.50;100.00
36380;BME280;22411;53.016;18.632;2023-09-08T08:39:36;101540.72;;;24.74;100.00
36380;BME280;22411;53.016;18.632;2023-09-08T08:42:09;101541.78;;;24.96;100.00
36380;BME280;22411;53.016;18.632;2023-09-08T08:44:37;101533.88;;;25.19;100.00
36380;BME280;22411;53.016;18.632;2023-09-08T08:47:04;101536.00;;;25.47;100.00
36380;BME280;22411;53.016;18.632;2023-09-08T08:49:32;101536.50;;;25.65;100.00
36380;BME280;22411;53.016;18.632;2023-09-08T08:51:59;101542.25;;;25.77;100.00
36380;BME280;22411;53.016;18.632;2023-09-08T08:54:25;101540.25;;;25.94;100.00
36380;BME280;22411;53.016;18.632;2023-09-08T08:56:51;101538.19;;;26.19;100.00
36380;BME280;22411;53.016;18.632;2023-09-08T08:59:18;101545.22;;;26.41;100.00
36380;BME280;22411;53.016;18.632;2023-09-08T09:01:45;101539.41;;;26.61;100.00
36380;BME280;22411;53.016;18.632;2023-09-08T09:04:11;101540.19;;;26.76;100.00
36380;BME280;22411;53.016;18.632;2023-09-08T09:06:37;101537.38;;;26.99;100.00
36380;BME280;22411;53.016;18.632;2023-09-08T09:09:03;101531.50;;;27.18;100.00
36380;BME280;22411;53.016;18.632;2023-09-08T09:11:34;101530.28;;;27.21;100.00
36380;BME280;22411;53.016;18.632;2023-09-08T09:13:59;101534.16;;;27.40;100.00
36380;BME280;22411;53.016;18.632;2023-09-08T09:16:25;101532.69;;;27.58;100.00
36380;BME280;22411;53.016;18.632;2023-09-08T09:18:56;101528.84;;;27.89;100.00
36380;BME280;22411;53.016;18.632;2023-09-08T09:21:23;101533.75;;;28.20;100.00
36380;BME280;22411;53.016;18.632;2023-09-08T09:23:49;101532.13;;;28.54;97.43
36380;BME280;22411;53.016;18.632;2023-09-08T09:26:25;101530.16;;;28.76;87.59
36380;BME280;22411;53.016;18.632;2023-09-08T09:28:51;101538.38;;;28.81;80.04
36380;BME280;22411;53.016;18.632;2023-09-08T09:31:25;101533.97;;;29.08;77.99
36380;BME280;22411;53.016;18.632;2023-09-08T09:34:03;101533.78;;;29.16;69.07
36380;BME280;22411;53.016;18.632;2023-09-08T09:36:30;101535.22;;;29.18;68.63
36380;BME280;22411;53.016;18.632;2023-09-08T09:39:00;101542.00;;;29.41;64.88
36380;BME280;22411;53.016;18.632;2023-09-08T09:41:29;101537.94;;;29.78;63.72
36380;BME280;22411;53.016;18.632;2023-09-08T09:43:56;101539.16;;;29.82;62.12
36380;BME280;22411;53.016;18.632;2023-09-08T09:46:22;101539.81;;;29.64;60.00
36380;BME280;22411;53.016;18.632;2023-09-08T09:48:54;101537.72;;;29.73;57.05
36380;BME280;22411;53.016;18.632;2023-09-08T09:51:22;101530.13;;;29.57;59.13
36380;BME280;22411;53.016;18.632;2023-09-08T09:53:50;101532.59;;;29.72;59.54
36380;BME280;22411;53.016;18.632;2023-09-08T09:56:18;101534.00;;;29.94;56.43
36380;BME280;22411;53.016;18.632;2023-09-08T09:58:44;101533.16;;;30.20;53.69
36380;BME280;22411;53.016;18.632;2023-09-08T10:01:11;101527.72;;;30.46;52.43
36380;BME280;22411;53.016;18.632;2023-09-08T10:03:39;101524.16;;;30.66;52.10
36380;BME280;22411;53.016;18.632;2023-09-08T10:06:06;101527.31;;;30.94;48.23
36380;BME280;22411;53.016;18.632;2023-09-08T10:08:34;101521.19;;;31.19;47.20
36380;BME280;22411;53.016;18.632;2023-09-08T10:11:06;101524.22;;;30.97;48.05
36380;BME280;22411;53.016;18.632;2023-09-08T10:13:39;101521.25;;;30.74;49.46
36380;BME280;22411;53.016;18.632;2023-09-08T10:16:08;101520.44;;;30.73;49.91
36380;BME280;22411;53.016;18.632;2023-09-08T10:18:39;101519.38;;;30.81;46.99
36380;BME280;22411;53.016;18.632;2023-09-08T10:21:07;101522.06;;;30.81;47.53
36380;BME280;22411;53.016;18.632;2023-09-08T10:23:40;101518.44;;;31.01;46.19
36380;BME280;22411;53.016;18.632;2023-09-08T10:26:11;101514.22;;;30.86;46.63
36380;BME280;22411;53.016;18.632;2023-09-08T10:28:38;101519.28;;;31.01;46.00
36380;BME280;22411;53.016;18.632;2023-09-08T10:31:04;101506.81;;;31.13;46.01
36380;BME280;22411;53.016;18.632;2023-09-08T10:33:31;101505.13;;;31.50;46.24
36380;BME280;22411;53.016;18.632;2023-09-08T10:35:59;101507.75;;;31.82;42.77
36380;BME280;22411;53.016;18.632;2023-09-08T10:38:30;101510.13;;;31.65;40.38
36380;BME280;22411;53.016;18.632;2023-09-08T10:43:45;101497.56;;;31.41;44.16
36380;BME280;22411;53.016;18.632;2023-09-08T10:46:21;101501.66;;;31.68;44.76
36380;BME280;22411;53.016;18.632;2023-09-08T10:48:47;101500.50;;;31.83;42.84
36380;BME280;22411;53.016;18.632;2023-09-08T10:51:22;101503.97;;;32.08;42.40
36380;BME280;22411;53.016;18.632;2023-09-08T10:53:49;101495.91;;;32.08;42.21
36380;BME280;22411;53.016;18.632;2023-09-08T10:56:16;101492.66;;;32.06;41.51
36380;BME280;22411;53.016;18.632;2023-09-08T10:58:42;101493.44;;;32.25;41.65
36380;BME280;22411;53.016;18.632;2023-09-08T11:01:17;101485.28;;;32.38;40.66
36380;BME280;22411;53.016;18.632;2023-09-08T11:03:44;101487.38;;;32.66;39.40
36380;BME280;22411;53.016;18.632;2023-09-08T11:06:11;101483.34;;;32.87;39.11
36380;BME280;22411;53.016;18.632;2023-09-08T11:08:42;101484.72;;;33.20;39.86
36380;BME280;22411;53.016;18.632;2023-09-08T11:11:13;101482.31;;;33.42;38.75
36380;BME280;22411;53.016;18.632;2023-09-08T11:13:38;101482.88;;;33.32;37.21
36380;BME280;22411;53.016;18.632;2023-09-08T11:16:07;101478.00;;;33.52;36.96
36380;BME280;22411;53.016;18.632;2023-09-08T11:18:34;101480.13;;;33.50;36.42
36380;BME280;22411;53.016;18.632;2023-09-08T11:21:01;101476.63;;;33.50;37.77
36380;BME280;22411;53.016;18.632;2023-09-08T11:23:28;101482.44;;;33.59;36.64
36380;BME280;22411;53.016;18.632;2023-09-08T11:25:54;101476.84;;;33.72;36.03
36380;BME280;22411;53.016;18.632;2023-09-08T11:28:23;101478.00;;;33.88;35.39
36380;BME280;22411;53.016;18.632;2023-09-08T11:30:50;101474.63;;;33.80;35.22
36380;BME280;22411;53.016;18.632;2023-09-08T11:33:17;101473.44;;;34.00;36.02
36380;BME280;22411;53.016;18.632;2023-09-08T11:35:47;101472.34;;;34.13;34.99
36380;BME280;22411;53.016;18.632;2023-09-08T11:38:12;101470.19;;;34.26;35.45
36380;BME280;22411;53.016;18.632;2023-09-08T11:40:38;101463.75;;;34.27;34.60
36380;BME280;22411;53.016;18.632;2023-09-08T11:43:05;101472.13;;;34.43;34.06
36380;BME280;22411;53.016;18.632;2023-09-08T11:45:34;101461.66;;;34.58;34.10
36380;BME280;22411;53.016;18.632;2023-09-08T11:48:00;101465.00;;;34.48;33.59
36380;BME280;22411;53.016;18.632;2023-09-08T11:50:26;101465.09;;;34.53;33.52
36380;BME280;22411;53.016;18.632;2023-09-08T11:52:53;101462.88;;;34.50;34.38
36380;BME280;22411;53.016;18.632;2023-09-08T11:55:21;101463.38;;;34.64;33.09
36380;BME280;22411;53.016;18.632;2023-09-08T11:57:49;101453.75;;;34.51;33.43
36380;BME280;22411;53.016;18.632;2023-09-08T12:00:17;101459.31;;;34.62;33.27
36380;BME280;22411;53.016;18.632;2023-09-08T12:02:45;101449.47;;;34.84;33.11
36380;BME280;22411;53.016;18.632;2023-09-08T12:05:27;101445.53;;;35.03;32.38
36380;BME280;22411;53.016;18.632;2023-09-08T12:07:54;101450.25;;;35.13;32.32
36380;BME280;22411;53.016;18.632;2023-09-08T12:10:22;101447.63;;;35.01;32.46
36380;BME280;22411;53.016;18.632;2023-09-08T12:12:50;101441.75;;;35.04;31.58
36380;BME280;22411;53.016;18.632;2023-09-08T12:15:32;101440.69;;;35.05;31.60
36380;BME280;22411;53.016;18.632;2023-09-08T12:18:00;101434.66;;;35.15;32.31
36380;BME280;22411;53.016;18.632;2023-09-08T12:20:26;101433.19;;;35.24;32.04
36380;BME280;22411;53.016;18.632;2023-09-08T12:22:52;101425.34;;;35.06;31.97
36380;BME280;22411;53.016;18.632;2023-09-08T12:25:18;101432.53;;;35.17;32.48
36380;BME280;22411;53.016;18.632;2023-09-08T12:27:49;101424.38;;;35.29;31.92
36380;BME280;22411;53.016;18.632;2023-09-08T12:30:22;101428.19;;;35.50;32.00
36380;BME280;22411;53.016;18.632;2023-09-08T12:33:01;101425.31;;;35.78;30.79
36380;BME280;22411;53.016;18.632;2023-09-08T12:35:28;101430.38;;;35.75;31.07
36380;BME280;22411;53.016;18.632;2023-09-08T12:37:58;101415.09;;;35.80;31.23
36380;BME280;22411;53.016;18.632;2023-09-08T12:40:26;101421.94;;;35.66;31.16